Time;durP1;ratioP1;P1;durP2;ratioP2;P2;SDS_P1;SDS_P2;PMS_P1;PMS_P2;Temp;Humidity;BMP_temperature;BMP_pressure;BME280_temperature;BME280_humidity;BME280_pressure;Samples;Min_cycle;Max_cycle;Signal;HPM_P1;HPM_P2
2022/10/06 04:02:34;;;;;;;3.30;3.00;;;;;;;;;;5088066;22;20448;-91
2022/10/06 04:05:00;;;;;;;3.08;2.67;;;;;;;;;;5053555;28;20397;-92
2022/10/06 04:07:26;;;;;;;3.20;2.53;;;;;;;;;;5055875;28;20874;-92
2022/10/06 04:09:55;;;;;;;2.80;2.60;;;;;;;;;;5064404;28;20380;-93
2022/10/06 04:12:21;;;;;;;3.10;2.60;;;;;;;;;;5063597;28;20392;-94
2022/10/06 04:14:47;;;;;;;3.27;2.80;;;;;;;;;;5060028;28;20384;-93
2022/10/06 04:17:13;;;;;;;2.70;2.50;;;;;;;;;;5139619;22;20428;-77
2022/10/06 04:19:39;;;;;;;3.60;2.70;;;;;;;;;;5028475;28;20376;-77
2022/10/06 04:22:05;;;;;;;4.68;2.67;;;;;;;;;;5031865;28;20386;-77
2022/10/06 04:24:31;;;;;;;5.97;2.97;;;;;;;;;;5035209;28;20478;-78
2022/10/06 04:27:26;;;;;;;3.08;2.63;;;;;;;;;;5035287;28;20748;-77
2022/10/06 04:29:44;;;;;;;2.77;2.57;;;;;;;;;;5034901;28;20474;-77
2022/10/06 04:32:10;;;;;;;3.78;2.80;;;;;;;;;;5035370;28;20737;-78
2022/10/06 04:34:36;;;;;;;3.57;2.60;;;;;;;;;;5035020;28;20941;-78
2022/10/06 04:37:02;;;;;;;2.80;2.60;;;;;;;;;;5034834;28;20767;-78
2022/10/06 04:39:28;;;;;;;3.20;2.92;;;;;;;;;;5035211;28;20375;-78
2022/10/06 04:41:54;;;;;;;3.70;2.80;;;;;;;;;;5034899;28;20444;-78
2022/10/06 04:44:20;;;;;;;4.65;4.15;;;;;;;;;;5034954;28;20379;-78
2022/10/06 04:46:46;;;;;;;11.90;8.53;;;;;;;;;;5034805;28;20987;-78
2022/10/06 04:49:13;;;;;;;7.82;6.05;;;;;;;;;;5034908;28;20391;-78
2022/10/06 04:51:38;;;;;;;5.90;5.28;;;;;;;;;;5034500;28;20375;-78
2022/10/06 04:54:04;;;;;;;5.30;4.80;;;;;;;;;;5034838;28;20898;-78
2022/10/06 04:56:31;;;;;;;4.47;4.10;;;;;;;;;;5034799;28;20414;-78
2022/10/06 04:58:57;;;;;;;3.50;3.20;;;;;;;;;;5034800;28;20863;-80
2022/10/06 05:01:24;;;;;;;5.03;3.50;;;;;;;;;;5034886;28;20883;-80
2022/10/06 05:03:52;;;;;;;4.57;3.38;;;;;;;;;;5034989;28;20375;-79
2022/10/06 05:06:18;;;;;;;4.85;2.90;;;;;;;;;;5035028;28;20771;-81
2022/10/06 05:08:48;;;;;;;3.10;2.78;;;;;;;;;;5034939;28;20498;-80
2022/10/06 05:11:14;;;;;;;4.00;3.60;;;;;;;;;;5034361;28;20371;-78
2022/10/06 05:13:40;;;;;;;4.93;3.70;;;;;;;;;;5034700;28;20387;-80
2022/10/06 05:16:07;;;;;;;5.35;3.38;;;;;;;;;;5033815;28;20407;-77
2022/10/06 05:18:34;;;;;;;5.83;3.30;;;;;;;;;;5034403;28;20426;-80
2022/10/06 05:21:03;;;;;;;3.67;3.20;;;;;;;;;;5034354;28;20467;-80
2022/10/06 05:23:30;;;;;;;4.47;3.53;;;;;;;;;;5034122;28;20383;-77
2022/10/06 05:25:57;;;;;;;7.13;4.72;;;;;;;;;;5034333;28;20450;-80
2022/10/06 05:28:24;;;;;;;4.13;3.83;;;;;;;;;;5034364;28;20394;-78
2022/10/06 05:31:04;;;;;;;4.57;4.07;;;;;;;;;;5033989;28;20740;-78
2022/10/06 05:33:31;;;;;;;7.22;4.50;;;;;;;;;;5034143;28;20386;-78
2022/10/06 05:35:59;;;;;;;5.28;4.78;;;;;;;;;;5033764;28;20486;-78
2022/10/06 05:38:26;;;;;;;5.15;4.45;;;;;;;;;;5033773;28;20387;-78
2022/10/06 05:40:59;;;;;;;5.35;4.25;;;;;;;;;;5033834;28;20379;-79
2022/10/06 05:43:25;;;;;;;8.65;6.13;;;;;;;;;;5033706;28;20395;-78
2022/10/06 05:45:55;;;;;;;4.70;3.72;;;;;;;;;;5033801;28;20379;-78
2022/10/06 05:48:21;;;;;;;6.45;5.15;;;;;;;;;;5033892;28;20482;-80
2022/10/06 05:50:48;;;;;;;9.33;7.87;;;;;;;;;;5033787;28;20466;-78
2022/10/06 05:53:14;;;;;;;15.18;9.52;;;;;;;;;;5033560;28;20387;-79
2022/10/06 05:55:40;;;;;;;7.55;6.30;;;;;;;;;;5033656;28;20414;-78
2022/10/06 05:58:06;;;;;;;4.70;4.30;;;;;;;;;;5033032;28;20473;-78
2022/10/06 06:00:32;;;;;;;5.30;4.23;;;;;;;;;;5031714;28;20470;-78
2022/10/06 06:02:58;;;;;;;3.92;3.63;;;;;;;;;;5044061;28;20790;-78
2022/10/06 06:05:24;;;;;;;3.83;3.45;;;;;;;;;;5036151;28;20445;-78
2022/10/06 06:07:50;;;;;;;3.60;3.30;;;;;;;;;;5033356;28;20418;-78
2022/10/06 06:10:16;;;;;;;3.63;3.33;;;;;;;;;;5033170;28;20383;-78
2022/10/06 06:12:42;;;;;;;3.85;3.55;;;;;;;;;;5033058;28;20379;-79
2022/10/06 06:17:53;;;;;;;4.28;3.58;;;;;;;;;;5032674;28;20756;-78
2022/10/06 06:20:19;;;;;;;6.20;3.55;;;;;;;;;;5025553;28;20448;-78
2022/10/06 06:22:45;;;;;;;3.80;3.50;;;;;;;;;;5029164;28;20386;-78
2022/10/06 06:25:11;;;;;;;4.00;3.60;;;;;;;;;;5031360;28;20404;-78
2022/10/06 06:27:39;;;;;;;4.35;3.97;;;;;;;;;;5026892;28;20378;-78
2022/10/06 06:30:06;;;;;;;5.15;4.40;;;;;;;;;;5018855;28;20383;-78
2022/10/06 06:32:32;;;;;;;4.72;4.32;;;;;;;;;;5033110;28;20386;-78
2022/10/06 06:34:58;;;;;;;7.05;4.00;;;;;;;;;;5032741;28;20391;-78
2022/10/06 06:37:24;;;;;;;4.82;4.32;;;;;;;;;;5032739;28;20398;-78
2022/10/06 06:39:50;;;;;;;3.83;3.42;;;;;;;;;;5032694;28;21218;-79
2022/10/06 06:42:16;;;;;;;3.45;3.20;;;;;;;;;;5032857;28;20399;-78
2022/10/06 06:44:42;;;;;;;4.50;3.50;;;;;;;;;;5027259;28;21196;-79
2022/10/06 06:47:08;;;;;;;6.68;3.42;;;;;;;;;;5030169;28;20433;-79
2022/10/06 06:49:34;;;;;;;4.60;3.30;;;;;;;;;;5029458;28;20395;-79
2022/10/06 06:52:02;;;;;;;4.10;3.10;;;;;;;;;;5026935;28;20414;-79
2022/10/06 06:54:28;;;;;;;3.80;3.47;;;;;;;;;;5032331;28;20448;-78
2022/10/06 06:56:55;;;;;;;4.60;3.33;;;;;;;;;;5032349;28;20403;-78
2022/10/06 06:59:21;;;;;;;3.67;3.37;;;;;;;;;;5025284;28;20390;-79
2022/10/06 07:01:47;;;;;;;4.97;3.35;;;;;;;;;;5032503;28;20391;-81
2022/10/06 07:04:14;;;;;;;4.82;3.55;;;;;;;;;;5032348;28;20406;-78
2022/10/06 07:06:41;;;;;;;6.55;3.47;;;;;;;;;;5031969;28;20462;-79
2022/10/06 07:09:09;;;;;;;4.65;3.90;;;;;;;;;;5027964;28;20436;-81
2022/10/06 07:11:36;;;;;;;5.60;3.90;;;;;;;;;;5027991;28;20553;-79
2022/10/06 07:14:03;;;;;;;4.18;3.70;;;;;;;;;;5011502;28;20397;-80
2022/10/06 07:27:30;;;;;;;12.35;4.65;;;;;;;;;;5012814;28;20384;-81
2022/10/06 07:29:56;;;;;;;9.23;4.25;;;;;;;;;;5017293;28;20386;-80
2022/10/06 07:32:23;;;;;;;4.40;4.00;;;;;;;;;;5012727;28;20397;-80
2022/10/06 07:34:49;;;;;;;4.40;4.00;;;;;;;;;;5017748;28;20391;-80
2022/10/06 07:37:15;;;;;;;5.15;3.55;;;;;;;;;;5030525;28;20379;-80
2022/10/06 07:39:43;;;;;;;4.30;3.88;;;;;;;;;;5019060;28;20381;-81
2022/10/06 07:42:11;;;;;;;4.22;3.83;;;;;;;;;;5014687;28;20439;-80
2022/10/06 07:44:38;;;;;;;4.40;3.60;;;;;;;;;;5021995;28;20421;-79
2022/10/06 07:47:04;;;;;;;5.45;4.20;;;;;;;;;;5030231;28;20383;-81
2022/10/06 07:49:30;;;;;;;4.60;4.30;;;;;;;;;;5032090;28;20398;-81
2022/10/06 07:51:57;;;;;;;13.13;5.35;;;;;;;;;;5031971;28;20917;-82
2022/10/06 07:54:24;;;;;;;9.43;5.43;;;;;;;;;;5031601;28;20386;-82
2022/10/06 07:56:50;;;;;;;54.50;7.80;;;;;;;;;;5030105;28;20411;-82
2022/10/06 07:59:16;;;;;;;11.35;5.53;;;;;;;;;;5033345;28;20379;-83
2022/10/06 08:01:43;;;;;;;6.60;5.10;;;;;;;;;;5031752;28;20383;-82
2022/10/06 08:04:09;;;;;;;11.57;5.50;;;;;;;;;;5031929;28;20382;-82
2022/10/06 08:06:35;;;;;;;6.53;5.87;;;;;;;;;;5031378;28;20383;-82
2022/10/06 08:09:01;;;;;;;36.08;8.27;;;;;;;;;;5031818;28;20517;-82
2022/10/06 08:11:27;;;;;;;18.90;9.70;;;;;;;;;;5031712;28;20410;-82
2022/10/06 08:13:53;;;;;;;16.27;12.30;;;;;;;;;;5031862;28;20391;-82
2022/10/06 08:16:21;;;;;;;17.85;11.48;;;;;;;;;;5030539;28;20500;-82
2022/10/06 08:18:54;;;;;;;13.20;10.20;;;;;;;;;;5030135;28;20388;-82
2022/10/06 08:21:22;;;;;;;13.47;9.83;;;;;;;;;;5012558;28;20487;-82
2022/10/06 08:23:48;;;;;;;12.73;10.00;;;;;;;;;;5020958;28;20872;-83
2022/10/06 08:26:15;;;;;;;13.18;10.60;;;;;;;;;;5028772;28;20903;-82
2022/10/06 08:28:46;;;;;;;13.10;10.13;;;;;;;;;;5035209;28;20391;-82
2022/10/06 08:31:14;;;;;;;15.55;10.10;;;;;;;;;;5035286;28;20729;-82
2022/10/06 08:33:41;;;;;;;9.77;8.68;;;;;;;;;;5035134;28;20383;-83
2022/10/06 08:36:08;;;;;;;10.90;8.65;;;;;;;;;;5035015;28;20406;-82
2022/10/06 08:38:35;;;;;;;11.00;9.02;;;;;;;;;;5030549;28;20861;-82
2022/10/06 08:41:01;;;;;;;12.13;8.90;;;;;;;;;;5027410;28;20521;-83
2022/10/06 08:43:28;;;;;;;10.85;8.80;;;;;;;;;;5034142;28;20383;-82
2022/10/06 08:45:59;;;;;;;11.43;9.45;;;;;;;;;;5034733;28;20375;-83
2022/10/06 08:48:27;;;;;;;11.87;8.80;;;;;;;;;;5034795;28;20873;-82
2022/10/06 08:50:53;;;;;;;10.55;8.15;;;;;;;;;;5034760;28;20380;-82
2022/10/06 08:53:22;;;;;;;11.07;8.55;;;;;;;;;;5034685;28;20394;-82
2022/10/06 08:55:52;;;;;;;15.55;9.95;;;;;;;;;;5034565;28;20429;-82
2022/10/06 08:58:21;;;;;;;15.20;9.77;;;;;;;;;;5034573;28;20879;-82
2022/10/06 09:00:48;;;;;;;12.40;9.82;;;;;;;;;;5034579;28;20375;-83
2022/10/06 09:03:17;;;;;;;17.02;10.70;;;;;;;;;;5034571;28;20887;-83
2022/10/06 09:05:44;;;;;;;20.63;11.45;;;;;;;;;;5034469;28;20394;-82
2022/10/06 09:08:18;;;;;;;10.55;8.68;;;;;;;;;;5034690;28;20383;-83
2022/10/06 09:10:48;;;;;;;13.60;9.60;;;;;;;;;;5016887;28;20853;-82
2022/10/06 09:13:19;;;;;;;21.90;9.77;;;;;;;;;;5022237;28;20379;-82
2022/10/06 09:15:48;;;;;;;9.95;8.02;;;;;;;;;;5034090;28;21013;-83
2022/10/06 09:18:21;;;;;;;11.27;8.50;;;;;;;;;;5034127;28;20398;-83
2022/10/06 09:20:53;;;;;;;9.00;8.10;;;;;;;;;;5034500;28;20421;-82
2022/10/06 09:23:46;;;;;;;10.15;8.07;;;;;;;;;;5016414;28;20387;-83
2022/10/06 09:26:09;;;;;;;9.40;6.87;;;;;;;;;;5033724;28;20569;-83
2022/10/06 09:28:36;;;;;;;10.93;6.27;;;;;;;;;;5016419;28;20394;-83
2022/10/06 09:31:02;;;;;;;6.80;5.50;;;;;;;;;;5032945;28;20387;-83
2022/10/06 09:33:33;;;;;;;9.48;5.70;;;;;;;;;;5032905;28;20383;-83
2022/10/06 09:36:17;;;;;;;7.28;5.68;;;;;;;;;;5033108;28;20449;-83
2022/10/06 09:38:52;;;;;;;8.70;6.90;;;;;;;;;;5021546;28;20421;-83
2022/10/06 09:41:19;;;;;;;9.13;7.13;;;;;;;;;;5033211;28;20783;-83
2022/10/06 09:43:54;;;;;;;8.57;7.13;;;;;;;;;;5033274;28;20470;-83
2022/10/06 09:46:20;;;;;;;10.00;7.90;;;;;;;;;;5032187;28;20766;-82
2022/10/06 09:48:46;;;;;;;12.35;8.15;;;;;;;;;;5032338;28;20471;-83
2022/10/06 09:51:16;;;;;;;11.48;8.07;;;;;;;;;;5033641;28;20391;-84
2022/10/06 09:53:43;;;;;;;17.02;7.05;;;;;;;;;;5032677;28;20398;-83
2022/10/06 09:56:14;;;;;;;14.20;7.55;;;;;;;;;;5032608;28;20792;-83
2022/10/06 09:58:52;;;;;;;9.20;6.70;;;;;;;;;;5035458;28;20499;-84
2022/10/06 10:01:22;;;;;;;8.50;7.10;;;;;;;;;;5031930;28;20383;-84
2022/10/06 10:03:52;;;;;;;7.78;6.43;;;;;;;;;;5032703;28;20375;-83
2022/10/06 10:06:28;;;;;;;23.17;7.20;;;;;;;;;;5032687;28;20383;-84
2022/10/06 10:09:13;;;;;;;46.45;9.07;;;;;;;;;;5030587;28;20378;-83
2022/10/06 10:14:24;;;;;;;6.13;5.53;;;;;;;;;;5027791;28;20735;-84
2022/10/06 10:16:50;;;;;;;11.68;6.38;;;;;;;;;;5028762;22;20735;-86
2022/10/06 10:19:23;;;;;;;8.15;5.97;;;;;;;;;;4930481;28;20392;-87
2022/10/06 10:21:50;;;;;;;11.00;5.65;;;;;;;;;;4933551;28;20387;-86
2022/10/06 10:24:22;;;;;;;9.13;5.78;;;;;;;;;;4932935;28;20388;-86
2022/10/06 10:26:54;;;;;;;7.43;5.45;;;;;;;;;;4933002;29;20467;-87
2022/10/06 10:29:30;;;;;;;8.13;5.13;;;;;;;;;;4932898;29;20884;-86
2022/10/06 10:32:01;;;;;;;8.63;5.30;;;;;;;;;;4933285;28;20503;-87
2022/10/06 10:34:33;;;;;;;8.68;4.97;;;;;;;;;;4929493;29;20415;-87
2022/10/06 10:37:03;;;;;;;6.32;4.72;;;;;;;;;;4932685;28;20824;-87
2022/10/06 10:39:47;;;;;;;6.15;3.90;;;;;;;;;;4931789;29;20395;-86
2022/10/06 10:42:21;;;;;;;4.45;4.00;;;;;;;;;;4932743;28;20395;-86
2022/10/06 10:44:54;;;;;;;6.20;3.90;;;;;;;;;;4932717;28;20379;-86
2022/10/06 10:47:40;;;;;;;4.53;3.95;;;;;;;;;;4938093;28;20387;-86
2022/10/06 10:50:13;;;;;;;5.80;3.70;;;;;;;;;;4939361;28;20403;-85
2022/10/06 10:52:40;;;;;;;6.22;3.42;;;;;;;;;;4931689;28;20495;-85
2022/10/06 10:55:16;;;;;;;10.05;3.60;;;;;;;;;;4932310;28;20392;-84
2022/10/06 10:57:43;;;;;;;5.10;3.60;;;;;;;;;;4932446;29;20396;-84
2022/10/06 11:00:20;;;;;;;3.40;3.10;;;;;;;;;;4932638;28;20388;-84
2022/10/06 11:02:47;;;;;;;4.30;2.33;;;;;;;;;;4932430;29;20411;-84
2022/10/06 11:05:36;;;;;;;4.93;2.75;;;;;;;;;;4932679;29;20765;-84
2022/10/06 11:08:24;;;;;;;2.55;2.00;;;;;;;;;;4932350;29;20399;-84
2022/10/06 11:10:54;;;;;;;4.00;2.53;;;;;;;;;;4932458;29;20380;-84
2022/10/06 11:13:32;;;;;;;2.97;2.53;;;;;;;;;;4932435;28;20395;-84
2022/10/06 11:16:17;;;;;;;6.10;2.77;;;;;;;;;;4932320;28;20416;-84
2022/10/06 11:18:49;;;;;;;4.30;3.00;;;;;;;;;;4932279;28;20470;-84
2022/10/06 11:21:18;;;;;;;3.28;2.60;;;;;;;;;;4932238;28;20861;-84
2022/10/06 11:23:47;;;;;;;3.47;2.43;;;;;;;;;;4932373;28;20392;-84
2022/10/06 11:26:17;;;;;;;12.32;3.17;;;;;;;;;;4932050;28;20387;-84
2022/10/06 11:28:47;;;;;;;5.13;2.60;;;;;;;;;;4932451;28;20399;-84
2022/10/06 11:31:16;;;;;;;3.72;2.20;;;;;;;;;;4932011;29;20392;-84
2022/10/06 11:33:47;;;;;;;4.65;2.45;;;;;;;;;;4932536;28;20392;-84
2022/10/06 11:36:19;;;;;;;3.05;1.90;;;;;;;;;;4931984;28;20498;-84
2022/10/06 11:38:49;;;;;;;5.33;2.63;;;;;;;;;;4932271;29;20888;-84
2022/10/06 11:41:30;;;;;;;4.97;1.90;;;;;;;;;;4931957;28;20518;-84
2022/10/06 11:43:59;;;;;;;3.40;1.90;;;;;;;;;;4932154;29;20521;-84
2022/10/06 11:46:43;;;;;;;3.35;1.90;;;;;;;;;;4932083;28;20403;-84
2022/10/06 11:49:27;;;;;;;21.50;3.93;;;;;;;;;;4931942;28;20457;-84
2022/10/06 11:51:54;;;;;;;3.72;2.00;;;;;;;;;;4931927;28;20868;-84
2022/10/06 11:54:44;;;;;;;3.13;1.97;;;;;;;;;;4932022;28;20495;-85
2022/10/06 11:57:22;;;;;;;3.07;2.23;;;;;;;;;;4931620;29;21020;-84
2022/10/06 12:00:08;;;;;;;4.93;2.38;;;;;;;;;;4933076;28;20422;-85
2022/10/06 12:02:34;;;;;;;3.65;2.20;;;;;;;;;;4964692;28;20445;-84
2022/10/06 12:05:09;;;;;;;3.97;2.40;;;;;;;;;;4935196;28;20399;-85
2022/10/06 12:07:56;;;;;;;5.15;2.42;;;;;;;;;;4934993;28;20395;-85
2022/10/06 12:10:28;;;;;;;3.38;2.00;;;;;;;;;;4935040;28;20471;-84
2022/10/06 12:13:10;;;;;;;5.35;2.97;;;;;;;;;;4932497;28;20741;-85
2022/10/06 12:15:48;;;;;;;4.53;2.53;;;;;;;;;;4934915;28;20447;-84
2022/10/06 12:18:22;;;;;;;4.05;2.40;;;;;;;;;;4934792;28;20753;-84
2022/10/06 12:21:07;;;;;;;3.45;2.25;;;;;;;;;;4935271;28;20384;-84
2022/10/06 12:23:45;;;;;;;3.20;2.25;;;;;;;;;;4934882;28;20392;-85
2022/10/06 12:26:20;;;;;;;3.93;2.30;;;;;;;;;;4934671;29;20869;-84
2022/10/06 12:28:50;;;;;;;4.23;2.50;;;;;;;;;;4934835;28;20396;-84
2022/10/06 12:31:34;;;;;;;3.70;2.23;;;;;;;;;;4931649;29;20385;-84
2022/10/06 12:34:00;;;;;;;5.78;2.72;;;;;;;;;;4934757;28;20533;-85
2022/10/06 12:36:27;;;;;;;3.63;2.50;;;;;;;;;;4934518;28;20495;-84
2022/10/06 12:39:05;;;;;;;4.33;2.50;;;;;;;;;;4934904;29;20395;-84
2022/10/06 12:41:50;;;;;;;3.33;2.60;;;;;;;;;;4934491;28;20392;-84
2022/10/06 12:44:23;;;;;;;4.10;2.83;;;;;;;;;;4934567;28;20438;-84
2022/10/06 12:46:50;;;;;;;4.53;2.30;;;;;;;;;;4934388;28;20403;-84
2022/10/06 12:49:25;;;;;;;7.43;2.80;;;;;;;;;;4934529;28;20455;-84
2022/10/06 12:51:52;;;;;;;3.55;2.50;;;;;;;;;;4934364;29;20453;-84
2022/10/06 12:54:19;;;;;;;21.23;4.15;;;;;;;;;;4934486;28;20400;-84
2022/10/06 12:57:14;;;;;;;7.63;2.70;;;;;;;;;;4934113;29;20430;-85
2022/10/06 12:59:40;;;;;;;4.50;2.50;;;;;;;;;;4946710;28;20441;-85
2022/10/06 13:02:17;;;;;;;7.60;2.55;;;;;;;;;;4934301;29;20388;-84
2022/10/06 13:04:49;;;;;;;3.40;2.60;;;;;;;;;;4945545;28;20732;-84
2022/10/06 13:07:19;;;;;;;24.23;3.92;;;;;;;;;;4934933;28;20535;-84
2022/10/06 13:09:45;;;;;;;5.45;2.70;;;;;;;;;;4934474;28;20471;-84
2022/10/06 13:12:26;;;;;;;3.60;2.20;;;;;;;;;;4933538;28;20402;-84
2022/10/06 13:15:10;;;;;;;9.73;2.80;;;;;;;;;;4934090;28;20944;-84
2022/10/06 13:17:55;;;;;;;10.75;2.85;;;;;;;;;;4933783;28;20419;-85
2022/10/06 13:20:21;;;;;;;5.30;2.45;;;;;;;;;;4934101;28;20461;-84
2022/10/06 13:22:54;;;;;;;3.40;2.28;;;;;;;;;;4933942;29;20387;-85
2022/10/06 13:25:20;;;;;;;3.28;2.15;;;;;;;;;;4934225;28;20384;-84
2022/10/06 13:27:50;;;;;;;4.35;2.38;;;;;;;;;;4933919;28;20533;-84
2022/10/06 13:30:21;;;;;;;4.72;2.40;;;;;;;;;;4933975;28;20388;-84
2022/10/06 13:32:53;;;;;;;3.65;2.40;;;;;;;;;;4933890;28;20394;-84
2022/10/06 13:35:24;;;;;;;5.38;2.33;;;;;;;;;;4933799;28;20391;-84
2022/10/06 13:37:51;;;;;;;3.40;2.25;;;;;;;;;;4933816;28;20380;-84
2022/10/06 13:40:27;;;;;;;5.47;2.37;;;;;;;;;;4933817;28;20399;-84
2022/10/06 13:42:55;;;;;;;5.97;2.60;;;;;;;;;;4933777;29;20868;-84
2022/10/06 13:45:22;;;;;;;4.03;2.40;;;;;;;;;;4920930;29;20873;-84
2022/10/06 13:48:00;;;;;;;4.15;2.60;;;;;;;;;;4933757;28;20388;-84
2022/10/06 13:50:26;;;;;;;6.28;2.53;;;;;;;;;;4936326;28;20450;-85
2022/10/06 13:52:52;;;;;;;8.80;2.90;;;;;;;;;;4933751;28;20485;-84
2022/10/06 13:55:22;;;;;;;5.32;2.63;;;;;;;;;;4933310;28;20463;-84
2022/10/06 13:57:50;;;;;;;5.40;2.90;;;;;;;;;;4933414;28;20396;-84
2022/10/06 14:00:19;;;;;;;25.83;4.78;;;;;;;;;;4933359;29;20761;-84
2022/10/06 14:02:46;;;;;;;3.83;2.50;;;;;;;;;;4933435;28;20808;-84
2022/10/06 14:05:18;;;;;;;4.00;2.33;;;;;;;;;;4933382;28;20395;-85
2022/10/06 14:07:44;;;;;;;7.65;2.88;;;;;;;;;;4931847;28;20396;-85
2022/10/06 14:10:31;;;;;;;4.63;2.35;;;;;;;;;;4933290;28;20399;-84
2022/10/06 14:12:59;;;;;;;5.03;2.40;;;;;;;;;;4953574;28;20922;-86
2022/10/06 14:15:26;;;;;;;4.18;2.58;;;;;;;;;;5026112;28;20421;-87
2022/10/06 14:17:57;;;;;;;4.53;2.67;;;;;;;;;;4979445;28;20407;-87
2022/10/06 14:20:37;;;;;;;5.60;2.72;;;;;;;;;;4964444;28;20418;-87
2022/10/06 14:23:23;;;;;;;3.78;2.80;;;;;;;;;;4931657;29;20388;-87
2022/10/06 14:25:49;;;;;;;5.57;2.40;;;;;;;;;;4932383;28;20394;-88
2022/10/06 14:28:15;;;;;;;11.35;2.97;;;;;;;;;;4932041;28;20483;-89
2022/10/06 14:30:41;;;;;;;25.92;3.92;;;;;;;;;;4933062;28;20394;-88
2022/10/06 14:33:07;;;;;;;6.05;2.47;;;;;;;;;;4921946;28;20388;-88
2022/10/06 14:35:33;;;;;;;4.03;2.47;;;;;;;;;;4932244;28;20427;-90
2022/10/06 14:38:00;;;;;;;4.70;2.50;;;;;;;;;;4932997;28;20948;-89
2022/10/06 14:40:26;;;;;;;3.85;2.40;;;;;;;;;;4933079;29;20474;-89
2022/10/06 14:42:52;;;;;;;3.83;2.42;;;;;;;;;;4946435;28;20423;-88
2022/10/06 14:45:18;;;;;;;4.00;2.33;;;;;;;;;;4947445;28;20430;-89
2022/10/06 14:47:45;;;;;;;4.47;2.70;;;;;;;;;;4932460;29;20489;-89
2022/10/06 14:50:11;;;;;;;7.40;3.00;;;;;;;;;;4932575;29;20402;-88
2022/10/06 14:52:38;;;;;;;6.55;3.00;;;;;;;;;;4932684;28;20441;-87
2022/10/06 14:55:06;;;;;;;4.90;2.90;;;;;;;;;;4932537;29;20803;-87
2022/10/06 14:57:32;;;;;;;4.07;2.67;;;;;;;;;;4932403;29;20407;-89
2022/10/06 14:59:58;;;;;;;4.40;2.60;;;;;;;;;;4932475;28;20466;-87
2022/10/06 15:02:24;;;;;;;6.55;2.60;;;;;;;;;;4929171;28;20415;-88
2022/10/06 15:04:53;;;;;;;4.00;2.60;;;;;;;;;;4932321;28;20442;-87
2022/10/06 15:10:04;;;;;;;5.07;2.50;;;;;;;;;;4932427;29;20939;-87
2022/10/06 15:12:30;;;;;;;4.50;2.58;;;;;;;;;;4932295;29;20396;-88
2022/10/06 15:14:56;;;;;;;4.03;2.70;;;;;;;;;;4932617;28;20434;-88
2022/10/06 15:17:23;;;;;;;3.97;2.78;;;;;;;;;;4932070;28;20506;-88
2022/10/06 15:19:49;;;;;;;5.38;2.97;;;;;;;;;;4932122;29;20383;-88
2022/10/06 15:22:15;;;;;;;3.60;2.63;;;;;;;;;;4932351;28;20577;-88
2022/10/06 15:24:43;;;;;;;6.82;3.47;;;;;;;;;;4932287;28;20387;-89
2022/10/06 15:29:56;;;;;;;8.60;4.93;;;;;;;;;;4932035;29;20800;-87
2022/10/06 15:32:22;;;;;;;7.47;4.97;;;;;;;;;;4930686;28;20414;-88
2022/10/06 15:34:50;;;;;;;35.28;20.10;;;;;;;;;;4932027;28;20392;-88
2022/10/06 15:37:18;;;;;;;17.20;11.50;;;;;;;;;;4935209;29;20458;-88
2022/10/06 15:39:45;;;;;;;20.90;12.50;;;;;;;;;;4936787;29;20391;-88
2022/10/06 15:42:14;;;;;;;15.27;7.97;;;;;;;;;;4935410;29;20446;-88
2022/10/06 15:45:24;;;;;;;5.15;3.03;;;;;;;;;;4934091;28;20746;-88
2022/10/06 15:47:51;;;;;;;4.35;2.85;;;;;;;;;;4993152;28;20401;-90
2022/10/06 15:50:17;;;;;;;4.50;2.50;;;;;;;;;;4939566;28;20428;-88
2022/10/06 15:52:44;;;;;;;3.83;2.35;;;;;;;;;;4921801;28;20444;-89
2022/10/06 15:55:10;;;;;;;6.00;2.40;;;;;;;;;;4931772;28;20392;-87
2022/10/06 15:57:36;;;;;;;4.90;2.70;;;;;;;;;;4933516;28;20392;-90
2022/10/06 16:00:03;;;;;;;6.05;2.30;;;;;;;;;;4934629;28;20419;-90
2022/10/06 16:02:34;;;;;;;3.42;2.47;;;;;;;;;;4933451;29;20384;-89
2022/10/06 16:07:32;;;;;;;3.33;2.33;;;;;;;;;;4933341;28;20410;-89
2022/10/06 16:09:58;;;;;;;6.35;2.50;;;;;;;;;;4925812;29;20391;-90
2022/10/06 16:12:27;;;;;;;3.60;2.45;;;;;;;;;;4932861;29;20418;-90
2022/10/06 16:14:53;;;;;;;10.63;2.60;;;;;;;;;;4934832;29;20395;-89
2022/10/06 16:17:19;;;;;;;6.07;2.85;;;;;;;;;;4934688;28;20766;-90
2022/10/06 16:19:45;;;;;;;3.95;2.40;;;;;;;;;;4935028;28;20944;-90
2022/10/06 16:22:13;;;;;;;5.93;2.67;;;;;;;;;;4934728;29;20388;-90
2022/10/06 16:24:39;;;;;;;4.32;2.40;;;;;;;;;;4948686;23;20457;-84
2022/10/06 16:27:05;;;;;;;5.30;2.72;;;;;;;;;;4910628;28;20927;-84
2022/10/06 16:29:31;;;;;;;4.22;2.40;;;;;;;;;;4910488;29;20444;-84
2022/10/06 16:32:00;;;;;;;3.47;2.45;;;;;;;;;;4913404;28;20416;-83
2022/10/06 16:34:26;;;;;;;3.53;2.47;;;;;;;;;;4919535;29;20421;-84
2022/10/06 16:36:52;;;;;;;5.50;2.87;;;;;;;;;;4904018;29;20421;-86
2022/10/06 16:39:19;;;;;;;4.65;2.72;;;;;;;;;;4915161;29;20803;-81
2022/10/06 16:41:46;;;;;;;4.78;2.83;;;;;;;;;;4915785;29;20751;-82
2022/10/06 16:44:12;;;;;;;3.83;2.60;;;;;;;;;;4915319;29;20473;-82
2022/10/06 16:46:39;;;;;;;5.63;2.72;;;;;;;;;;4915037;29;20793;-82
2022/10/06 16:49:07;;;;;;;3.88;2.70;;;;;;;;;;4914999;29;20405;-84
2022/10/06 16:51:34;;;;;;;7.20;2.75;;;;;;;;;;4915461;29;20385;-83
2022/10/06 16:54:01;;;;;;;12.65;3.28;;;;;;;;;;4915570;29;20394;-83
2022/10/06 16:56:38;;;;;;;4.28;2.90;;;;;;;;;;4915099;29;20425;-84
2022/10/06 16:59:07;;;;;;;3.67;3.20;;;;;;;;;;4911788;29;20399;-83
2022/10/06 17:01:34;;;;;;;8.82;3.03;;;;;;;;;;4900077;29;20395;-81
2022/10/06 17:04:07;;;;;;;5.72;3.03;;;;;;;;;;4915280;29;20855;-83
2022/10/06 17:06:34;;;;;;;7.27;3.00;;;;;;;;;;4915140;29;20484;-83
2022/10/06 17:09:00;;;;;;;12.30;3.30;;;;;;;;;;4915266;29;20401;-83
2022/10/06 17:11:26;;;;;;;5.88;3.20;;;;;;;;;;4929825;29;20412;-83
2022/10/06 17:13:54;;;;;;;6.82;2.72;;;;;;;;;;4929821;29;20493;-83
2022/10/06 17:16:28;;;;;;;9.02;3.00;;;;;;;;;;4915065;29;20463;-81
2022/10/06 17:18:54;;;;;;;3.72;2.47;;;;;;;;;;4914900;29;20389;-81
2022/10/06 17:21:20;;;;;;;6.20;2.83;;;;;;;;;;4914973;29;20793;-81
2022/10/06 17:23:51;;;;;;;5.35;2.75;;;;;;;;;;4913563;28;20409;-81
2022/10/06 17:26:18;;;;;;;4.07;3.43;;;;;;;;;;4915125;29;20400;-82
2022/10/06 17:28:45;;;;;;;3.72;3.40;;;;;;;;;;4914855;29;20940;-82
2022/10/06 17:31:11;;;;;;;4.38;3.60;;;;;;;;;;4914444;29;20398;-81
2022/10/06 17:33:39;;;;;;;4.90;3.63;;;;;;;;;;4914966;29;20421;-83
2022/10/06 17:36:06;;;;;;;5.53;3.78;;;;;;;;;;4914570;29;20436;-83
2022/10/06 17:38:33;;;;;;;4.85;3.47;;;;;;;;;;4914997;29;20393;-83
2022/10/06 17:40:59;;;;;;;4.07;3.63;;;;;;;;;;4914637;29;20759;-82
2022/10/06 17:43:25;;;;;;;5.67;4.00;;;;;;;;;;4914720;29;20476;-82
2022/10/06 17:45:51;;;;;;;4.20;3.80;;;;;;;;;;4914559;29;20393;-81
2022/10/06 17:48:17;;;;;;;4.30;3.78;;;;;;;;;;4914613;29;20408;-82
2022/10/06 17:50:43;;;;;;;5.30;4.30;;;;;;;;;;4916711;29;20401;-84
2022/10/06 17:53:09;;;;;;;5.50;4.23;;;;;;;;;;4913556;29;20401;-84
2022/10/06 17:55:35;;;;;;;7.22;4.22;;;;;;;;;;4914458;29;20456;-83
2022/10/06 17:58:01;;;;;;;4.60;4.20;;;;;;;;;;4913840;29;20398;-83
2022/10/06 18:00:27;;;;;;;5.38;4.80;;;;;;;;;;4913105;29;20970;-85
2022/10/06 18:02:58;;;;;;;6.63;5.20;;;;;;;;;;4908993;29;20432;-84
2022/10/06 18:05:24;;;;;;;5.28;4.80;;;;;;;;;;4905285;29;20396;-84
2022/10/06 18:07:50;;;;;;;5.95;5.15;;;;;;;;;;4900919;29;20386;-84
2022/10/06 18:13:01;;;;;;;7.53;6.03;;;;;;;;;;4908592;29;20931;-83
2022/10/06 18:15:27;;;;;;;7.57;6.15;;;;;;;;;;4914014;29;20492;-83
2022/10/06 18:17:53;;;;;;;7.95;5.63;;;;;;;;;;4914145;29;20871;-83
2022/10/06 18:20:20;;;;;;;5.90;5.40;;;;;;;;;;4914055;29;20473;-82
2022/10/06 18:22:47;;;;;;;5.55;4.75;;;;;;;;;;4914042;29;20396;-82
2022/10/06 18:25:15;;;;;;;7.85;4.85;;;;;;;;;;4913741;29;20405;-82
2022/10/06 18:27:41;;;;;;;7.38;4.65;;;;;;;;;;4913594;29;20476;-82
2022/10/06 18:30:08;;;;;;;6.68;4.90;;;;;;;;;;4995575;28;20398;-82
2022/10/06 18:32:34;;;;;;;5.93;4.35;;;;;;;;;;4914403;29;20394;-82
2022/10/06 18:35:00;;;;;;;5.70;4.53;;;;;;;;;;4913818;29;20396;-82
2022/10/06 18:37:26;;;;;;;7.40;4.95;;;;;;;;;;4913748;29;20480;-82
2022/10/06 18:39:52;;;;;;;8.52;5.82;;;;;;;;;;4914073;29;20386;-82
2022/10/06 18:42:18;;;;;;;6.00;5.17;;;;;;;;;;4913848;29;20473;-83
2022/10/06 18:50:14;;;;;;;5.85;5.28;;;;;;;;;;4914051;29;20882;-83
2022/10/06 18:52:42;;;;;;;5.30;4.80;;;;;;;;;;4913896;29;20429;-82
2022/10/06 18:55:08;;;;;;;6.55;5.20;;;;;;;;;;4912819;29;20393;-80
2022/10/06 18:57:35;;;;;;;5.90;5.30;;;;;;;;;;4899761;29;21058;-82
2022/10/06 19:00:01;;;;;;;5.93;5.43;;;;;;;;;;4908331;29;20518;-82
2022/10/06 19:02:27;;;;;;;6.07;5.47;;;;;;;;;;4900590;29;20386;-82
2022/10/06 19:04:54;;;;;;;7.28;5.60;;;;;;;;;;4908815;29;20407;-82
2022/10/06 19:07:20;;;;;;;6.67;5.63;;;;;;;;;;4912531;29;20532;-83
2022/10/06 19:09:46;;;;;;;7.28;6.65;;;;;;;;;;4910905;29;20477;-82
2022/10/06 19:12:12;;;;;;;7.53;6.78;;;;;;;;;;4911698;29;20393;-82
2022/10/06 19:14:45;;;;;;;7.80;6.20;;;;;;;;;;4909876;29;20431;-83
2022/10/06 19:17:13;;;;;;;6.90;4.80;;;;;;;;;;4898474;28;20417;-84
2022/10/06 19:19:40;;;;;;;5.95;4.53;;;;;;;;;;4910040;28;20444;-84
2022/10/06 19:22:23;;;;;;;4.32;3.92;;;;;;;;;;4909800;29;20498;-84
2022/10/06 19:24:50;;;;;;;6.57;4.10;;;;;;;;;;4919635;29;20412;-83
2022/10/06 19:27:22;;;;;;;4.72;4.00;;;;;;;;;;4914419;28;20401;-83